sensor_id;sensor_type;location;lat;lon;timestamp;P1;durP1;ratioP1;P2;durP2;ratioP2
13269;SDS011;6703;51.994;7.570;2022-12-29T00:00:24;0.00;;;0.00;;
13269;SDS011;6703;51.994;7.570;2022-12-29T00:02:52;0.00;;;0.00;;
13269;SDS011;6703;51.994;7.570;2022-12-29T00:05:23;0.10;;;0.10;;
13269;SDS011;6703;51.994;7.570;2022-12-29T00:07:51;0.00;;;0.00;;
13269;SDS011;6703;51.994;7.570;2022-12-29T00:10:19;0.00;;;0.00;;
13269;SDS011;6703;51.994;7.570;2022-12-29T00:12:47;0.00;;;0.00;;
13269;SDS011;6703;51.994;7.570;2022-12-29T00:15:32;0.10;;;0.10;;
13269;SDS011;6703;51.994;7.570;2022-12-29T00:18:06;0.00;;;0.00;;
13269;SDS011;6703;51.994;7.570;2022-12-29T00:20:36;0.00;;;0.00;;
13269;SDS011;6703;51.994;7.570;2022-12-29T00:23:22;0.00;;;0.00;;
13269;SDS011;6703;51.994;7.570;2022-12-29T00:26:10;0.10;;;0.10;;
13269;SDS011;6703;51.994;7.570;2022-12-29T00:28:58;0.00;;;0.00;;
13269;SDS011;6703;51.994;7.570;2022-12-29T00:31:52;0.00;;;0.00;;
13269;SDS011;6703;51.994;7.570;2022-12-29T00:34:37;0.00;;;0.00;;
13269;SDS011;6703;51.994;7.570;2022-12-29T00:37:24;0.00;;;0.00;;
13269;SDS011;6703;51.994;7.570;2022-12-29T00:40:07;0.95;;;0.93;;
13269;SDS011;6703;51.994;7.570;2022-12-29T00:42:52;0.00;;;0.00;;
13269;SDS011;6703;51.994;7.570;2022-12-29T00:45:34;0.00;;;0.00;;
13269;SDS011;6703;51.994;7.570;2022-12-29T00:48:02;0.00;;;0.00;;
13269;SDS011;6703;51.994;7.570;2022-12-29T00:50:30;0.00;;;0.00;;
13269;SDS011;6703;51.994;7.570;2022-12-29T00:52:59;0.00;;;0.00;;
13269;SDS011;6703;51.994;7.570;2022-12-29T00:55:27;0.00;;;0.00;;
13269;SDS011;6703;51.994;7.570;2022-12-29T00:57:54;0.00;;;0.00;;
13269;SDS011;6703;51.994;7.570;2022-12-29T01:00:22;0.00;;;0.00;;
13269;SDS011;6703;51.994;7.570;2022-12-29T01:02:50;0.00;;;0.00;;
13269;SDS011;6703;51.994;7.570;2022-12-29T01:05:17;0.00;;;0.00;;
13269;SDS011;6703;51.994;7.570;2022-12-29T01:07:45;0.00;;;0.00;;
13269;SDS011;6703;51.994;7.570;2022-12-29T01:10:14;0.00;;;0.00;;
13269;SDS011;6703;51.994;7.570;2022-12-29T01:12:41;0.00;;;0.00;;
13269;SDS011;6703;51.994;7.570;2022-12-29T01:15:12;0.00;;;0.00;;
13269;SDS011;6703;51.994;7.570;2022-12-29T01:17:40;0.00;;;0.00;;
13269;SDS011;6703;51.994;7.570;2022-12-29T01:20:08;0.00;;;0.00;;
13269;SDS011;6703;51.994;7.570;2022-12-29T01:22:37;0.00;;;0.00;;
13269;SDS011;6703;51.994;7.570;2022-12-29T01:25:05;0.00;;;0.00;;
13269;SDS011;6703;51.994;7.570;2022-12-29T01:27:34;0.20;;;0.20;;
13269;SDS011;6703;51.994;7.570;2022-12-29T01:30:02;0.00;;;0.00;;
13269;SDS011;6703;51.994;7.570;2022-12-29T01:32:31;0.00;;;0.00;;
13269;SDS011;6703;51.994;7.570;2022-12-29T01:34:59;0.00;;;0.00;;
13269;SDS011;6703;51.994;7.570;2022-12-29T01:37:26;0.00;;;0.00;;
13269;SDS011;6703;51.994;7.570;2022-12-29T01:39:54;0.00;;;0.00;;
13269;SDS011;6703;51.994;7.570;2022-12-29T01:42:22;0.35;;;0.35;;
13269;SDS011;6703;51.994;7.570;2022-12-29T01:44:54;0.00;;;0.00;;
13269;SDS011;6703;51.994;7.570;2022-12-29T01:47:29;0.00;;;0.00;;
13269;SDS011;6703;51.994;7.570;2022-12-29T01:50:01;0.00;;;0.00;;
13269;SDS011;6703;51.994;7.570;2022-12-29T01:52:33;0.00;;;0.00;;
13269;SDS011;6703;51.994;7.570;2022-12-29T01:55:02;0.00;;;0.00;;
13269;SDS011;6703;51.994;7.570;2022-12-29T01:57:32;0.00;;;0.00;;
13269;SDS011;6703;51.994;7.570;2022-12-29T02:00:04;0.00;;;0.00;;
13269;SDS011;6703;51.994;7.570;2022-12-29T02:02:34;0.00;;;0.00;;
13269;SDS011;6703;51.994;7.570;2022-12-29T02:05:04;0.00;;;0.00;;
13269;SDS011;6703;51.994;7.570;2022-12-29T02:07:34;0.00;;;0.00;;
13269;SDS011;6703;51.994;7.570;2022-12-29T02:10:03;0.00;;;0.00;;
13269;SDS011;6703;51.994;7.570;2022-12-29T02:12:32;0.00;;;0.00;;
13269;SDS011;6703;51.994;7.570;2022-12-29T02:15:00;0.00;;;0.00;;
13269;SDS011;6703;51.994;7.570;2022-12-29T02:17:36;0.00;;;0.00;;
13269;SDS011;6703;51.994;7.570;2022-12-29T02:20:20;0.10;;;0.10;;
13269;SDS011;6703;51.994;7.570;2022-12-29T02:23:05;0.00;;;0.00;;
13269;SDS011;6703;51.994;7.570;2022-12-29T02:25:58;0.00;;;0.00;;
13269;SDS011;6703;51.994;7.570;2022-12-29T02:28:42;0.00;;;0.00;;
13269;SDS011;6703;51.994;7.570;2022-12-29T02:31:29;0.00;;;0.00;;
13269;SDS011;6703;51.994;7.570;2022-12-29T02:34:01;1.50;;;0.30;;
13269;SDS011;6703;51.994;7.570;2022-12-29T02:36:37;0.00;;;0.00;;
13269;SDS011;6703;51.994;7.570;2022-12-29T02:39:11;0.00;;;0.00;;
13269;SDS011;6703;51.994;7.570;2022-12-29T02:41:45;0.20;;;0.20;;
13269;SDS011;6703;51.994;7.570;2022-12-29T02:44:16;0.00;;;0.00;;
13269;SDS011;6703;51.994;7.570;2022-12-29T02:46:51;0.00;;;0.00;;
13269;SDS011;6703;51.994;7.570;2022-12-29T02:49:22;0.00;;;0.00;;
13269;SDS011;6703;51.994;7.570;2022-12-29T02:51:55;0.00;;;0.00;;
13269;SDS011;6703;51.994;7.570;2022-12-29T02:54:25;0.10;;;0.10;;
13269;SDS011;6703;51.994;7.570;2022-12-29T02:57:10;0.00;;;0.00;;
13269;SDS011;6703;51.994;7.570;2022-12-29T02:59:39;0.00;;;0.00;;
13269;SDS011;6703;51.994;7.570;2022-12-29T03:02:13;0.00;;;0.00;;
13269;SDS011;6703;51.994;7.570;2022-12-29T03:05:00;0.00;;;0.00;;
13269;SDS011;6703;51.994;7.570;2022-12-29T03:07:36;0.00;;;0.00;;
13269;SDS011;6703;51.994;7.570;2022-12-29T03:10:11;0.00;;;0.00;;
13269;SDS011;6703;51.994;7.570;2022-12-29T03:12:45;0.00;;;0.00;;
13269;SDS011;6703;51.994;7.570;2022-12-29T03:15:33;0.00;;;0.00;;
13269;SDS011;6703;51.994;7.570;2022-12-29T03:18:22;0.00;;;0.00;;
13269;SDS011;6703;51.994;7.570;2022-12-29T03:20:54;0.10;;;0.10;;
13269;SDS011;6703;51.994;7.570;2022-12-29T03:23:22;0.00;;;0.00;;
13269;SDS011;6703;51.994;7.570;2022-12-29T03:25:52;0.00;;;0.00;;
13269;SDS011;6703;51.994;7.570;2022-12-29T03:28:23;0.00;;;0.00;;
13269;SDS011;6703;51.994;7.570;2022-12-29T03:30:53;0.00;;;0.00;;
13269;SDS011;6703;51.994;7.570;2022-12-29T03:33:23;0.00;;;0.00;;
13269;SDS011;6703;51.994;7.570;2022-12-29T03:35:53;0.00;;;0.00;;
13269;SDS011;6703;51.994;7.570;2022-12-29T03:38:25;0.00;;;0.00;;
13269;SDS011;6703;51.994;7.570;2022-12-29T03:40:58;0.00;;;0.00;;
13269;SDS011;6703;51.994;7.570;2022-12-29T03:43:26;0.00;;;0.00;;
13269;SDS011;6703;51.994;7.570;2022-12-29T03:45:55;0.00;;;0.00;;
13269;SDS011;6703;51.994;7.570;2022-12-29T03:48:24;0.00;;;0.00;;
13269;SDS011;6703;51.994;7.570;2022-12-29T03:50:52;0.00;;;0.00;;
13269;SDS011;6703;51.994;7.570;2022-12-29T03:53:19;0.00;;;0.00;;
13269;SDS011;6703;51.994;7.570;2022-12-29T03:55:47;0.10;;;0.10;;
13269;SDS011;6703;51.994;7.570;2022-12-29T03:58:15;0.00;;;0.00;;
13269;SDS011;6703;51.994;7.570;2022-12-29T04:00:43;0.00;;;0.00;;
13269;SDS011;6703;51.994;7.570;2022-12-29T04:03:11;0.00;;;0.00;;
13269;SDS011;6703;51.994;7.570;2022-12-29T04:05:40;0.00;;;0.00;;
13269;SDS011;6703;51.994;7.570;2022-12-29T04:08:08;0.00;;;0.00;;
13269;SDS011;6703;51.994;7.570;2022-12-29T04:10:35;0.00;;;0.00;;
13269;SDS011;6703;51.994;7.570;2022-12-29T04:13:03;0.00;;;0.00;;
13269;SDS011;6703;51.994;7.570;2022-12-29T04:15:31;0.00;;;0.00;;
13269;SDS011;6703;51.994;7.570;2022-12-29T04:17:59;0.00;;;0.00;;
13269;SDS011;6703;51.994;7.570;2022-12-29T04:20:26;0.00;;;0.00;;
13269;SDS011;6703;51.994;7.570;2022-12-29T04:23:21;0.00;;;0.00;;
13269;SDS011;6703;51.994;7.570;2022-12-29T04:25:49;0.00;;;0.00;;
13269;SDS011;6703;51.994;7.570;2022-12-29T04:28:17;0.00;;;0.00;;
13269;SDS011;6703;51.994;7.570;2022-12-29T04:30:45;0.00;;;0.00;;
13269;SDS011;6703;51.994;7.570;2022-12-29T04:33:13;0.00;;;0.00;;
13269;SDS011;6703;51.994;7.570;2022-12-29T04:35:44;0.00;;;0.00;;
13269;SDS011;6703;51.994;7.570;2022-12-29T04:38:11;0.00;;;0.00;;
13269;SDS011;6703;51.994;7.570;2022-12-29T04:40:41;0.00;;;0.00;;
13269;SDS011;6703;51.994;7.570;2022-12-29T04:43:10;0.00;;;0.00;;
13269;SDS011;6703;51.994;7.570;2022-12-29T04:45:38;0.00;;;0.00;;
13269;SDS011;6703;51.994;7.570;2022-12-29T04:48:05;0.20;;;0.20;;
13269;SDS011;6703;51.994;7.570;2022-12-29T04:50:33;0.00;;;0.00;;
13269;SDS011;6703;51.994;7.570;2022-12-29T04:53:01;0.00;;;0.00;;
13269;SDS011;6703;51.994;7.570;2022-12-29T04:55:29;0.00;;;0.00;;
13269;SDS011;6703;51.994;7.570;2022-12-29T04:57:58;0.00;;;0.00;;
13269;SDS011;6703;51.994;7.570;2022-12-29T05:00:26;3.90;;;1.30;;
13269;SDS011;6703;51.994;7.570;2022-12-29T05:02:53;0.00;;;0.00;;
13269;SDS011;6703;51.994;7.570;2022-12-29T05:05:21;0.00;;;0.00;;
13269;SDS011;6703;51.994;7.570;2022-12-29T05:07:49;0.00;;;0.00;;
13269;SDS011;6703;51.994;7.570;2022-12-29T05:10:17;0.00;;;0.00;;
13269;SDS011;6703;51.994;7.570;2022-12-29T05:12:45;0.00;;;0.00;;
13269;SDS011;6703;51.994;7.570;2022-12-29T05:15:14;0.10;;;0.10;;
13269;SDS011;6703;51.994;7.570;2022-12-29T05:17:43;0.10;;;0.10;;
13269;SDS011;6703;51.994;7.570;2022-12-29T05:20:11;0.00;;;0.00;;
13269;SDS011;6703;51.994;7.570;2022-12-29T05:22:39;0.00;;;0.00;;
13269;SDS011;6703;51.994;7.570;2022-12-29T05:25:08;0.00;;;0.00;;
13269;SDS011;6703;51.994;7.570;2022-12-29T05:27:36;0.00;;;0.00;;
13269;SDS011;6703;51.994;7.570;2022-12-29T05:30:04;0.00;;;0.00;;
13269;SDS011;6703;51.994;7.570;2022-12-29T05:32:34;0.00;;;0.00;;
13269;SDS011;6703;51.994;7.570;2022-12-29T05:35:02;0.00;;;0.00;;
13269;SDS011;6703;51.994;7.570;2022-12-29T05:37:30;0.00;;;0.00;;
13269;SDS011;6703;51.994;7.570;2022-12-29T05:39:57;0.20;;;0.20;;
13269;SDS011;6703;51.994;7.570;2022-12-29T05:42:25;0.00;;;0.00;;
13269;SDS011;6703;51.994;7.570;2022-12-29T05:44:53;0.00;;;0.00;;
13269;SDS011;6703;51.994;7.570;2022-12-29T05:47:20;0.00;;;0.00;;
13269;SDS011;6703;51.994;7.570;2022-12-29T05:49:49;0.00;;;0.00;;
13269;SDS011;6703;51.994;7.570;2022-12-29T05:52:17;0.00;;;0.00;;
13269;SDS011;6703;51.994;7.570;2022-12-29T05:54:45;2.10;;;0.80;;
13269;SDS011;6703;51.994;7.570;2022-12-29T05:57:13;0.00;;;0.00;;
13269;SDS011;6703;51.994;7.570;2022-12-29T05:59:41;0.00;;;0.00;;
13269;SDS011;6703;51.994;7.570;2022-12-29T06:02:09;0.00;;;0.00;;
13269;SDS011;6703;51.994;7.570;2022-12-29T06:04:37;0.50;;;0.50;;
13269;SDS011;6703;51.994;7.570;2022-12-29T06:07:06;0.00;;;0.00;;
13269;SDS011;6703;51.994;7.570;2022-12-29T06:09:34;0.60;;;0.60;;
13269;SDS011;6703;51.994;7.570;2022-12-29T06:12:01;0.00;;;0.00;;
13269;SDS011;6703;51.994;7.570;2022-12-29T06:14:29;0.00;;;0.00;;
13269;SDS011;6703;51.994;7.570;2022-12-29T06:16:57;0.00;;;0.00;;
13269;SDS011;6703;51.994;7.570;2022-12-29T06:19:26;0.00;;;0.00;;
13269;SDS011;6703;51.994;7.570;2022-12-29T06:21:53;0.10;;;0.10;;
13269;SDS011;6703;51.994;7.570;2022-12-29T06:24:22;0.00;;;0.00;;
13269;SDS011;6703;51.994;7.570;2022-12-29T06:26:50;0.00;;;0.00;;
13269;SDS011;6703;51.994;7.570;2022-12-29T06:29:18;0.00;;;0.00;;
13269;SDS011;6703;51.994;7.570;2022-12-29T06:31:46;0.00;;;0.00;;
13269;SDS011;6703;51.994;7.570;2022-12-29T06:34:15;0.30;;;0.30;;
13269;SDS011;6703;51.994;7.570;2022-12-29T06:36:43;0.00;;;0.00;;
13269;SDS011;6703;51.994;7.570;2022-12-29T06:39:10;0.00;;;0.00;;
13269;SDS011;6703;51.994;7.570;2022-12-29T06:41:40;0.00;;;0.00;;
13269;SDS011;6703;51.994;7.570;2022-12-29T06:44:08;0.00;;;0.00;;
13269;SDS011;6703;51.994;7.570;2022-12-29T06:46:35;0.00;;;0.00;;
13269;SDS011;6703;51.994;7.570;2022-12-29T06:49:03;0.00;;;0.00;;
13269;SDS011;6703;51.994;7.570;2022-12-29T06:51:30;0.00;;;0.00;;
13269;SDS011;6703;51.994;7.570;2022-12-29T06:53:58;0.10;;;0.10;;
13269;SDS011;6703;51.994;7.570;2022-12-29T06:56:26;0.00;;;0.00;;
13269;SDS011;6703;51.994;7.570;2022-12-29T06:58:55;0.05;;;0.05;;
13269;SDS011;6703;51.994;7.570;2022-12-29T07:01:22;0.00;;;0.00;;
13269;SDS011;6703;51.994;7.570;2022-12-29T07:03:51;0.10;;;0.10;;
13269;SDS011;6703;51.994;7.570;2022-12-29T07:06:18;0.00;;;0.00;;
13269;SDS011;6703;51.994;7.570;2022-12-29T07:08:46;0.00;;;0.00;;
13269;SDS011;6703;51.994;7.570;2022-12-29T07:11:14;0.00;;;0.00;;
13269;SDS011;6703;51.994;7.570;2022-12-29T07:13:42;0.00;;;0.00;;
13269;SDS011;6703;51.994;7.570;2022-12-29T07:16:11;0.00;;;0.00;;
13269;SDS011;6703;51.994;7.570;2022-12-29T07:18:39;0.10;;;0.10;;
13269;SDS011;6703;51.994;7.570;2022-12-29T07:21:07;0.40;;;0.40;;
13269;SDS011;6703;51.994;7.570;2022-12-29T07:23:35;0.00;;;0.00;;
13269;SDS011;6703;51.994;7.570;2022-12-29T07:26:03;0.00;;;0.00;;
13269;SDS011;6703;51.994;7.570;2022-12-29T07:28:32;0.90;;;0.90;;
13269;SDS011;6703;51.994;7.570;2022-12-29T07:31:01;0.00;;;0.00;;
13269;SDS011;6703;51.994;7.570;2022-12-29T07:33:30;0.00;;;0.00;;
13269;SDS011;6703;51.994;7.570;2022-12-29T07:35:59;0.00;;;0.00;;
13269;SDS011;6703;51.994;7.570;2022-12-29T07:38:26;0.00;;;0.00;;
13269;SDS011;6703;51.994;7.570;2022-12-29T07:40:56;0.00;;;0.00;;
13269;SDS011;6703;51.994;7.570;2022-12-29T07:43:24;0.00;;;0.00;;
13269;SDS011;6703;51.994;7.570;2022-12-29T07:45:52;0.00;;;0.00;;
13269;SDS011;6703;51.994;7.570;2022-12-29T07:48:21;0.00;;;0.00;;
13269;SDS011;6703;51.994;7.570;2022-12-29T07:50:50;0.00;;;0.00;;
13269;SDS011;6703;51.994;7.570;2022-12-29T07:53:19;0.00;;;0.00;;
13269;SDS011;6703;51.994;7.570;2022-12-29T07:55:47;0.00;;;0.00;;
13269;SDS011;6703;51.994;7.570;2022-12-29T07:58:15;0.00;;;0.00;;
13269;SDS011;6703;51.994;7.570;2022-12-29T08:00:43;0.00;;;0.00;;
13269;SDS011;6703;51.994;7.570;2022-12-29T08:03:10;1.80;;;0.50;;
13269;SDS011;6703;51.994;7.570;2022-12-29T08:05:38;0.00;;;0.00;;
13269;SDS011;6703;51.994;7.570;2022-12-29T08:08:08;0.00;;;0.00;;
13269;SDS011;6703;51.994;7.570;2022-12-29T08:10:35;0.00;;;0.00;;
13269;SDS011;6703;51.994;7.570;2022-12-29T08:13:03;1.80;;;0.50;;
13269;SDS011;6703;51.994;7.570;2022-12-29T08:15:31;0.00;;;0.00;;
13269;SDS011;6703;51.994;7.570;2022-12-29T08:17:59;0.00;;;0.00;;
13269;SDS011;6703;51.994;7.570;2022-12-29T08:20:26;0.00;;;0.00;;
13269;SDS011;6703;51.994;7.570;2022-12-29T08:22:54;0.10;;;0.10;;
13269;SDS011;6703;51.994;7.570;2022-12-29T08:25:23;0.00;;;0.00;;
13269;SDS011;6703;51.994;7.570;2022-12-29T08:27:51;0.00;;;0.00;;
13269;SDS011;6703;51.994;7.570;2022-12-29T08:30:18;0.00;;;0.00;;
13269;SDS011;6703;51.994;7.570;2022-12-29T08:32:46;0.00;;;0.00;;
13269;SDS011;6703;51.994;7.570;2022-12-29T08:35:14;0.00;;;0.00;;
13269;SDS011;6703;51.994;7.570;2022-12-29T08:37:42;0.05;;;0.05;;
13269;SDS011;6703;51.994;7.570;2022-12-29T08:40:10;0.00;;;0.00;;
13269;SDS011;6703;51.994;7.570;2022-12-29T08:42:39;0.00;;;0.00;;
13269;SDS011;6703;51.994;7.570;2022-12-29T08:45:07;0.30;;;0.30;;
13269;SDS011;6703;51.994;7.570;2022-12-29T08:47:35;0.00;;;0.00;;
13269;SDS011;6703;51.994;7.570;2022-12-29T08:50:03;0.00;;;0.00;;
13269;SDS011;6703;51.994;7.570;2022-12-29T08:52:32;0.00;;;0.00;;
13269;SDS011;6703;51.994;7.570;2022-12-29T08:55:00;0.00;;;0.00;;
13269;SDS011;6703;51.994;7.570;2022-12-29T08:57:28;0.50;;;0.40;;
13269;SDS011;6703;51.994;7.570;2022-12-29T08:59:57;0.10;;;0.10;;
13269;SDS011;6703;51.994;7.570;2022-12-29T09:02:25;2.90;;;0.70;;
13269;SDS011;6703;51.994;7.570;2022-12-29T09:04:53;0.00;;;0.00;;
13269;SDS011;6703;51.994;7.570;2022-12-29T09:07:20;1.70;;;0.30;;
13269;SDS011;6703;51.994;7.570;2022-12-29T09:09:49;0.00;;;0.00;;
13269;SDS011;6703;51.994;7.570;2022-12-29T09:12:17;0.00;;;0.00;;
13269;SDS011;6703;51.994;7.570;2022-12-29T09:14:45;0.00;;;0.00;;
13269;SDS011;6703;51.994;7.570;2022-12-29T09:17:15;0.00;;;0.00;;
13269;SDS011;6703;51.994;7.570;2022-12-29T09:20:00;0.00;;;0.00;;
13269;SDS011;6703;51.994;7.570;2022-12-29T09:22:28;0.27;;;0.13;;
13269;SDS011;6703;51.994;7.570;2022-12-29T09:24:56;0.10;;;0.10;;
13269;SDS011;6703;51.994;7.570;2022-12-29T09:27:24;0.00;;;0.00;;
13269;SDS011;6703;51.994;7.570;2022-12-29T09:29:51;0.00;;;0.00;;
13269;SDS011;6703;51.994;7.570;2022-12-29T09:32:21;0.00;;;0.00;;
13269;SDS011;6703;51.994;7.570;2022-12-29T09:34:50;0.00;;;0.00;;
13269;SDS011;6703;51.994;7.570;2022-12-29T09:37:17;0.00;;;0.00;;
13269;SDS011;6703;51.994;7.570;2022-12-29T09:39:45;0.00;;;0.00;;
13269;SDS011;6703;51.994;7.570;2022-12-29T09:42:21;0.00;;;0.00;;
13269;SDS011;6703;51.994;7.570;2022-12-29T09:44:54;0.47;;;0.47;;
13269;SDS011;6703;51.994;7.570;2022-12-29T09:47:29;1.17;;;0.32;;
13269;SDS011;6703;51.994;7.570;2022-12-29T09:49:58;9.57;;;1.20;;
13269;SDS011;6703;51.994;7.570;2022-12-29T09:52:29;7.45;;;1.00;;
13269;SDS011;6703;51.994;7.570;2022-12-29T09:55:00;2.55;;;0.47;;
13269;SDS011;6703;51.994;7.570;2022-12-29T09:57:38;7.90;;;1.25;;
13269;SDS011;6703;51.994;7.570;2022-12-29T10:00:11;6.10;;;0.87;;
13269;SDS011;6703;51.994;7.570;2022-12-29T10:02:43;5.90;;;1.03;;
13269;SDS011;6703;51.994;7.570;2022-12-29T10:05:13;6.45;;;1.05;;
13269;SDS011;6703;51.994;7.570;2022-12-29T10:07:49;5.47;;;0.73;;
13269;SDS011;6703;51.994;7.570;2022-12-29T10:10:25;4.57;;;1.10;;
13269;SDS011;6703;51.994;7.570;2022-12-29T10:13:05;7.18;;;0.73;;
13269;SDS011;6703;51.994;7.570;2022-12-29T10:15:45;6.32;;;1.02;;
13269;SDS011;6703;51.994;7.570;2022-12-29T10:18:22;5.20;;;1.00;;
13269;SDS011;6703;51.994;7.570;2022-12-29T10:20:57;7.25;;;0.80;;
13269;SDS011;6703;51.994;7.570;2022-12-29T10:23:27;6.03;;;1.10;;
13269;SDS011;6703;51.994;7.570;2022-12-29T10:25:57;4.28;;;0.88;;
13269;SDS011;6703;51.994;7.570;2022-12-29T10:28:30;6.68;;;0.90;;
13269;SDS011;6703;51.994;7.570;2022-12-29T10:31:03;4.18;;;0.90;;
13269;SDS011;6703;51.994;7.570;2022-12-29T10:33:36;6.00;;;0.88;;
13269;SDS011;6703;51.994;7.570;2022-12-29T10:36:10;4.60;;;1.30;;
13269;SDS011;6703;51.994;7.570;2022-12-29T10:38:42;7.80;;;1.00;;
13269;SDS011;6703;51.994;7.570;2022-12-29T10:41:17;8.45;;;1.02;;
13269;SDS011;6703;51.994;7.570;2022-12-29T10:43:48;6.17;;;1.00;;
13269;SDS011;6703;51.994;7.570;2022-12-29T10:46:17;6.90;;;1.10;;
13269;SDS011;6703;51.994;7.570;2022-12-29T10:48:48;5.68;;;0.90;;
13269;SDS011;6703;51.994;7.570;2022-12-29T10:51:18;9.30;;;1.10;;
13269;SDS011;6703;51.994;7.570;2022-12-29T10:53:50;5.35;;;1.33;;
13269;SDS011;6703;51.994;7.570;2022-12-29T10:56:22;5.13;;;0.93;;
13269;SDS011;6703;51.994;7.570;2022-12-29T10:58:57;9.52;;;1.05;;
13269;SDS011;6703;51.994;7.570;2022-12-29T11:01:30;7.72;;;1.15;;
13269;SDS011;6703;51.994;7.570;2022-12-29T11:04:03;6.15;;;1.17;;
13269;SDS011;6703;51.994;7.570;2022-12-29T11:06:31;3.83;;;0.77;;
13269;SDS011;6703;51.994;7.570;2022-12-29T11:09:01;4.63;;;0.77;;
13269;SDS011;6703;51.994;7.570;2022-12-29T11:11:32;5.45;;;1.05;;
13269;SDS011;6703;51.994;7.570;2022-12-29T11:14:07;9.05;;;1.33;;
13269;SDS011;6703;51.994;7.570;2022-12-29T11:16:39;5.47;;;0.80;;
13269;SDS011;6703;51.994;7.570;2022-12-29T11:19:20;5.63;;;1.20;;
13269;SDS011;6703;51.994;7.570;2022-12-29T11:21:49;6.32;;;1.02;;
13269;SDS011;6703;51.994;7.570;2022-12-29T11:24:19;9.80;;;1.10;;
13269;SDS011;6703;51.994;7.570;2022-12-29T11:26:49;8.43;;;1.50;;
13269;SDS011;6703;51.994;7.570;2022-12-29T11:29:22;5.30;;;1.05;;
13269;SDS011;6703;51.994;7.570;2022-12-29T11:31:53;5.13;;;0.70;;
13269;SDS011;6703;51.994;7.570;2022-12-29T11:34:24;6.80;;;0.95;;
13269;SDS011;6703;51.994;7.570;2022-12-29T11:36:53;6.93;;;0.90;;
13269;SDS011;6703;51.994;7.570;2022-12-29T11:39:30;5.53;;;1.02;;
13269;SDS011;6703;51.994;7.570;2022-12-29T11:42:00;3.80;;;0.80;;
13269;SDS011;6703;51.994;7.570;2022-12-29T11:44:31;5.30;;;1.20;;
13269;SDS011;6703;51.994;7.570;2022-12-29T11:47:03;6.82;;;0.90;;
13269;SDS011;6703;51.994;7.570;2022-12-29T11:49:34;2.17;;;0.60;;
13269;SDS011;6703;51.994;7.570;2022-12-29T11:52:01;4.75;;;0.80;;
13269;SDS011;6703;51.994;7.570;2022-12-29T11:54:30;5.90;;;0.83;;
13269;SDS011;6703;51.994;7.570;2022-12-29T11:57:08;1.58;;;0.65;;
13269;SDS011;6703;51.994;7.570;2022-12-29T11:59:38;4.20;;;1.07;;
13269;SDS011;6703;51.994;7.570;2022-12-29T12:02:20;6.38;;;0.80;;
13269;SDS011;6703;51.994;7.570;2022-12-29T12:04:56;2.80;;;0.43;;
13269;SDS011;6703;51.994;7.570;2022-12-29T12:07:31;4.80;;;0.97;;
13269;SDS011;6703;51.994;7.570;2022-12-29T12:10:05;3.83;;;0.60;;
13269;SDS011;6703;51.994;7.570;2022-12-29T12:12:35;5.45;;;0.70;;
13269;SDS011;6703;51.994;7.570;2022-12-29T12:15:08;7.07;;;0.95;;
13269;SDS011;6703;51.994;7.570;2022-12-29T12:17:43;3.22;;;0.50;;
13269;SDS011;6703;51.994;7.570;2022-12-29T12:20:18;3.10;;;0.70;;
13269;SDS011;6703;51.994;7.570;2022-12-29T12:22:51;2.70;;;0.68;;
13269;SDS011;6703;51.994;7.570;2022-12-29T12:25:27;6.10;;;0.63;;
13269;SDS011;6703;51.994;7.570;2022-12-29T12:27:59;1.48;;;0.40;;
13269;SDS011;6703;51.994;7.570;2022-12-29T12:30:30;3.33;;;0.60;;
13269;SDS011;6703;51.994;7.570;2022-12-29T12:33:03;3.65;;;0.90;;
13269;SDS011;6703;51.994;7.570;2022-12-29T12:35:37;13.50;;;1.40;;
13269;SDS011;6703;51.994;7.570;2022-12-29T12:38:12;6.53;;;1.00;;
13269;SDS011;6703;51.994;7.570;2022-12-29T12:40:54;4.30;;;1.17;;
13269;SDS011;6703;51.994;7.570;2022-12-29T12:43:36;8.02;;;0.88;;
13269;SDS011;6703;51.994;7.570;2022-12-29T12:46:25;6.25;;;0.77;;
13269;SDS011;6703;51.994;7.570;2022-12-29T12:52:05;5.20;;;1.30;;
13269;SDS011;6703;51.994;7.570;2022-12-29T12:54:41;5.13;;;1.20;;
13269;SDS011;6703;51.994;7.570;2022-12-29T12:57:17;3.35;;;0.88;;
13269;SDS011;6703;51.994;7.570;2022-12-29T12:59:52;6.75;;;1.02;;
13269;SDS011;6703;51.994;7.570;2022-12-29T13:02:28;3.03;;;0.88;;
13269;SDS011;6703;51.994;7.570;2022-12-29T13:08:03;5.28;;;0.80;;
13269;SDS011;6703;51.994;7.570;2022-12-29T13:10:46;4.43;;;0.70;;
13269;SDS011;6703;51.994;7.570;2022-12-29T13:13:25;7.35;;;0.80;;
13269;SDS011;6703;51.994;7.570;2022-12-29T13:16:04;6.00;;;0.95;;
13269;SDS011;6703;51.994;7.570;2022-12-29T13:18:43;4.93;;;1.07;;
13269;SDS011;6703;51.994;7.570;2022-12-29T13:21:16;4.78;;;0.90;;
13269;SDS011;6703;51.994;7.570;2022-12-29T13:23:54;7.72;;;0.88;;
13269;SDS011;6703;51.994;7.570;2022-12-29T13:26:25;4.20;;;0.95;;
13269;SDS011;6703;51.994;7.570;2022-12-29T13:28:57;6.35;;;0.82;;
13269;SDS011;6703;51.994;7.570;2022-12-29T13:31:28;7.82;;;1.10;;
13269;SDS011;6703;51.994;7.570;2022-12-29T13:34:00;6.53;;;1.10;;
13269;SDS011;6703;51.994;7.570;2022-12-29T13:36:33;5.05;;;1.00;;
13269;SDS011;6703;51.994;7.570;2022-12-29T13:39:10;2.78;;;0.68;;
13269;SDS011;6703;51.994;7.570;2022-12-29T13:41:46;8.27;;;1.30;;
13269;SDS011;6703;51.994;7.570;2022-12-29T13:44:17;4.07;;;0.80;;
13269;SDS011;6703;51.994;7.570;2022-12-29T13:46:48;6.10;;;1.05;;
13269;SDS011;6703;51.994;7.570;2022-12-29T13:49:17;4.75;;;0.88;;
13269;SDS011;6703;51.994;7.570;2022-12-29T13:51:47;6.93;;;1.00;;
13269;SDS011;6703;51.994;7.570;2022-12-29T13:54:21;5.77;;;1.03;;
13269;SDS011;6703;51.994;7.570;2022-12-29T13:56:55;6.70;;;1.10;;
13269;SDS011;6703;51.994;7.570;2022-12-29T13:59:33;8.68;;;0.90;;
13269;SDS011;6703;51.994;7.570;2022-12-29T14:02:09;8.30;;;0.83;;
13269;SDS011;6703;51.994;7.570;2022-12-29T14:04:55;4.32;;;0.85;;
13269;SDS011;6703;51.994;7.570;2022-12-29T14:07:23;7.45;;;1.08;;
13269;SDS011;6703;51.994;7.570;2022-12-29T14:10:18;3.80;;;1.02;;
13269;SDS011;6703;51.994;7.570;2022-12-29T14:12:59;7.80;;;0.90;;
13269;SDS011;6703;51.994;7.570;2022-12-29T14:15:29;6.97;;;1.00;;
13269;SDS011;6703;51.994;7.570;2022-12-29T14:18:04;8.43;;;1.20;;
13269;SDS011;6703;51.994;7.570;2022-12-29T14:20:38;6.55;;;1.13;;
13269;SDS011;6703;51.994;7.570;2022-12-29T14:23:24;7.10;;;1.00;;
13269;SDS011;6703;51.994;7.570;2022-12-29T14:26:00;7.72;;;1.17;;
13269;SDS011;6703;51.994;7.570;2022-12-29T14:28:38;7.32;;;1.10;;
13269;SDS011;6703;51.994;7.570;2022-12-29T14:37:15;4.85;;;1.00;;
13269;SDS011;6703;51.994;7.570;2022-12-29T14:39:54;9.70;;;1.33;;
13269;SDS011;6703;51.994;7.570;2022-12-29T14:42:32;7.22;;;1.40;;
13269;SDS011;6703;51.994;7.570;2022-12-29T14:45:00;8.23;;;1.40;;
13269;SDS011;6703;51.994;7.570;2022-12-29T14:47:31;8.65;;;1.10;;
13269;SDS011;6703;51.994;7.570;2022-12-29T14:50:02;9.02;;;1.58;;
13269;SDS011;6703;51.994;7.570;2022-12-29T14:52:32;12.50;;;1.90;;
13269;SDS011;6703;51.994;7.570;2022-12-29T14:55:01;9.25;;;1.23;;
13269;SDS011;6703;51.994;7.570;2022-12-29T14:57:58;11.03;;;1.50;;
13269;SDS011;6703;51.994;7.570;2022-12-29T15:00:29;5.57;;;1.08;;
13269;SDS011;6703;51.994;7.570;2022-12-29T15:03:02;9.68;;;1.45;;
13269;SDS011;6703;51.994;7.570;2022-12-29T15:05:34;14.52;;;1.48;;
13269;SDS011;6703;51.994;7.570;2022-12-29T15:08:04;6.30;;;1.10;;
13269;SDS011;6703;51.994;7.570;2022-12-29T15:10:37;9.20;;;1.50;;
13269;SDS011;6703;51.994;7.570;2022-12-29T15:13:15;6.23;;;1.20;;
13269;SDS011;6703;51.994;7.570;2022-12-29T15:15:44;3.10;;;0.70;;
13269;SDS011;6703;51.994;7.570;2022-12-29T15:18:21;5.95;;;0.85;;
13269;SDS011;6703;51.994;7.570;2022-12-29T15:20:51;6.93;;;0.90;;
13269;SDS011;6703;51.994;7.570;2022-12-29T15:23:21;5.47;;;0.93;;
13269;SDS011;6703;51.994;7.570;2022-12-29T15:25:50;3.67;;;0.90;;
13269;SDS011;6703;51.994;7.570;2022-12-29T15:28:21;8.82;;;1.60;;
13269;SDS011;6703;51.994;7.570;2022-12-29T15:30:50;12.15;;;1.35;;
13269;SDS011;6703;51.994;7.570;2022-12-29T15:33:20;6.23;;;0.90;;
13269;SDS011;6703;51.994;7.570;2022-12-29T15:35:49;4.38;;;0.93;;
13269;SDS011;6703;51.994;7.570;2022-12-29T15:38:20;3.88;;;0.90;;